Branch, Wisconsin
Current Conditions -  °F | °C
As of 11:56 AM on Friday 21 Nov 2014 (Local Time) from KMTW Reporting Station
Clear Clear  
Wind Chill: 19°   Ceiling: Unl
Heat Index: 29°   Visibility: 10mi
Dew Point:   Wind: 12mph
Humidity: 38%   Direction: 200°SSW
Pressure: 30.34"   Gusts: NA
Location:  44.15°N, 87.76°W
Report Text: KMTW 211756Z AUTO 20010KT 10SM CLR M02/M14 A3034 RMK AO2 SLP298 T10171144 11017 21139 58019 FZRANO
Loading
Personal Weather Stations






























Interactive Weather Map New forecast layout! Learn more

10-Day Weather Forecast

Advertisements
Track Severe Weather on mobile